createdAt,value
2018-07-17T00:01:30.087Z,17.30
2018-07-17T00:03:59.175Z,17.30
2018-07-17T00:06:28.311Z,17.20
2018-07-17T00:08:57.394Z,17.20
2018-07-17T00:11:26.561Z,17.20
2018-07-17T00:13:55.645Z,17.30
2018-07-17T00:16:24.790Z,17.30
2018-07-17T00:18:53.941Z,17.10
2018-07-17T00:21:23.082Z,17.20
2018-07-17T00:23:52.175Z,17.30
2018-07-17T00:26:21.297Z,17.20
2018-07-17T00:28:50.366Z,17.30
2018-07-17T00:31:19.474Z,17.30
2018-07-17T00:33:48.587Z,17.00
2018-07-17T00:36:17.702Z,16.90
2018-07-17T00:38:46.798Z,17.10
2018-07-17T00:41:15.935Z,17.40
2018-07-17T00:43:45.020Z,17.40
2018-07-17T00:46:14.112Z,17.10
2018-07-17T00:48:43.260Z,17.10
2018-07-17T00:51:12.347Z,17.10
2018-07-17T00:53:41.578Z,17.10
2018-07-17T00:56:10.659Z,16.90
2018-07-17T00:58:39.815Z,16.90
2018-07-17T01:01:08.193Z,16.60
2018-07-17T01:03:42.544Z,16.60
2018-07-17T01:06:16.762Z,16.80
2018-07-17T01:08:51.323Z,16.60
2018-07-17T01:11:25.903Z,16.60
2018-07-17T01:13:59.115Z,16.80
2018-07-17T01:16:28.826Z,16.90
2018-07-17T01:18:57.915Z,16.80
2018-07-17T01:21:27.087Z,16.50
2018-07-17T01:23:56.216Z,16.30
2018-07-17T01:26:25.282Z,16.30
2018-07-17T01:28:54.383Z,16.50
2018-07-17T01:31:23.466Z,16.50
2018-07-17T01:33:52.562Z,16.50
2018-07-17T01:36:21.654Z,16.50
2018-07-17T01:38:50.772Z,16.50
2018-07-17T01:41:19.851Z,16.60
2018-07-17T01:43:48.938Z,16.50
2018-07-17T01:46:18.034Z,16.50
2018-07-17T01:48:47.198Z,16.50
2018-07-17T01:51:16.371Z,16.30
2018-07-17T01:53:45.557Z,16.00
2018-07-17T01:56:14.656Z,15.70
2018-07-17T01:58:43.771Z,15.80
2018-07-17T02:01:12.867Z,16.10
2018-07-17T02:03:41.982Z,16.10
2018-07-17T02:06:11.084Z,16.10
2018-07-17T02:08:40.188Z,16.00
2018-07-17T02:11:09.255Z,16.10
2018-07-17T02:13:38.397Z,16.10
2018-07-17T02:16:07.504Z,16.10
2018-07-17T02:21:05.350Z,16.20
2018-07-17T02:23:34.466Z,16.30
2018-07-17T02:26:03.589Z,16.20
2018-07-17T02:28:32.708Z,16.30
2018-07-17T02:31:01.794Z,16.20
2018-07-17T02:33:30.892Z,15.60
2018-07-17T02:36:00.031Z,15.30
2018-07-17T02:38:29.106Z,15.50
2018-07-17T02:40:58.211Z,15.70
2018-07-17T02:43:27.318Z,15.80
2018-07-17T02:45:56.439Z,15.80
2018-07-17T02:48:25.574Z,15.80
2018-07-17T02:50:54.760Z,16.00
2018-07-17T02:53:23.819Z,15.90
2018-07-17T02:55:52.935Z,15.80
2018-07-17T02:58:22.068Z,15.90
2018-07-17T03:00:51.171Z,16.00
2018-07-17T03:03:20.527Z,15.90
2018-07-17T03:05:49.624Z,15.80
2018-07-17T03:08:18.719Z,15.80
2018-07-17T03:10:48.175Z,15.70
2018-07-17T03:15:46.119Z,15.60
2018-07-17T03:18:15.180Z,15.50
2018-07-17T03:20:44.274Z,15.50
2018-07-17T03:23:13.330Z,15.60
2018-07-17T03:25:42.414Z,15.60
2018-07-17T03:28:11.550Z,15.60
2018-07-17T03:30:41.247Z,15.40
2018-07-17T03:33:10.351Z,15.10
2018-07-17T03:35:39.495Z,15.10
2018-07-17T03:38:08.782Z,15.30
2018-07-17T03:40:37.984Z,15.70
2018-07-17T03:43:07.063Z,15.30
2018-07-17T03:45:36.138Z,15.20
2018-07-17T03:48:05.388Z,15.40
2018-07-17T03:50:34.553Z,15.50
2018-07-17T03:53:03.694Z,15.60
2018-07-17T03:55:34.767Z,15.60
2018-07-17T03:58:06.195Z,15.50
2018-07-17T04:00:35.410Z,15.50
2018-07-17T04:03:04.544Z,15.40
2018-07-17T04:05:33.871Z,15.40
2018-07-17T04:10:31.646Z,15.50
2018-07-17T04:13:01.372Z,15.50
2018-07-17T04:15:30.555Z,15.50
2018-07-17T04:17:59.614Z,15.50
2018-07-17T04:20:28.704Z,15.50
2018-07-17T04:22:57.853Z,15.40
2018-07-17T04:25:26.905Z,15.50
2018-07-17T04:27:56.015Z,15.60
2018-07-17T04:30:25.096Z,15.50
2018-07-17T04:32:54.305Z,15.60
2018-07-17T04:35:23.390Z,15.60
2018-07-17T04:37:52.864Z,15.50
2018-07-17T04:40:21.967Z,15.60
2018-07-17T04:42:51.114Z,15.60
2018-07-17T04:45:20.210Z,15.60
2018-07-17T04:47:49.294Z,15.70
2018-07-17T04:50:18.439Z,15.70
2018-07-17T04:52:47.523Z,15.70
2018-07-17T04:55:16.610Z,15.80
2018-07-17T04:57:45.735Z,15.70
2018-07-17T05:00:14.825Z,15.80
2018-07-17T05:02:44.018Z,15.80
2018-07-17T05:05:13.182Z,15.90
2018-07-17T05:07:42.322Z,16.10
2018-07-17T05:10:11.430Z,16.20
2018-07-17T05:12:40.749Z,16.30
2018-07-17T05:15:10.319Z,16.50
2018-07-17T05:17:39.690Z,16.50
2018-07-17T05:20:08.804Z,16.60
2018-07-17T05:22:38.027Z,16.60
2018-07-17T05:25:07.293Z,16.70
2018-07-17T05:27:36.499Z,16.80
2018-07-17T05:30:06.096Z,16.80
2018-07-17T05:32:35.519Z,16.90
2018-07-17T05:35:04.776Z,17.00
2018-07-17T05:37:33.855Z,17.10
2018-07-17T05:40:02.983Z,17.30
2018-07-17T05:42:32.218Z,17.30
2018-07-17T05:45:01.320Z,17.40
2018-07-17T05:47:30.434Z,17.50
2018-07-17T05:49:59.506Z,17.60
2018-07-17T05:52:28.703Z,17.70
2018-07-17T05:54:57.796Z,17.80
2018-07-17T05:57:26.929Z,17.90
2018-07-17T05:59:56.015Z,18.00
2018-07-17T06:02:25.211Z,18.20
2018-07-17T06:04:54.306Z,18.30
2018-07-17T06:07:23.389Z,18.40
2018-07-17T06:09:52.474Z,18.50
2018-07-17T06:12:22.195Z,18.50
2018-07-17T06:14:51.287Z,18.60
2018-07-17T06:17:20.418Z,18.80
2018-07-17T06:19:49.501Z,18.90
2018-07-17T06:22:18.583Z,19.00
2018-07-17T06:24:47.715Z,19.10
2018-07-17T06:27:16.870Z,19.30
2018-07-17T06:29:45.971Z,19.30
2018-07-17T06:32:15.067Z,19.40
2018-07-17T06:34:44.169Z,19.50
2018-07-17T06:37:13.258Z,19.60
2018-07-17T06:39:42.366Z,19.80
2018-07-17T06:42:11.447Z,19.80
2018-07-17T06:44:40.559Z,19.90
2018-07-17T06:47:09.612Z,20.10
2018-07-17T06:49:38.714Z,20.20
2018-07-17T06:52:07.783Z,20.30
2018-07-17T06:54:36.878Z,20.40
2018-07-17T06:57:06.004Z,20.50
2018-07-17T06:59:35.141Z,20.50
2018-07-17T07:02:04.246Z,20.50
2018-07-17T07:04:33.350Z,20.70
2018-07-17T07:07:02.426Z,21.00
2018-07-17T07:09:31.502Z,21.00
2018-07-17T07:12:00.586Z,21.20
2018-07-17T07:14:29.745Z,21.40
2018-07-17T07:16:58.815Z,21.50
2018-07-17T07:19:27.911Z,21.70
2018-07-17T07:21:56.998Z,21.90
2018-07-17T07:24:26.094Z,22.00
2018-07-17T07:26:55.162Z,22.00
2018-07-17T07:29:24.302Z,22.10
2018-07-17T07:31:53.427Z,22.30
2018-07-17T07:34:22.528Z,22.30
2018-07-17T07:36:51.654Z,22.40
2018-07-17T07:39:20.771Z,22.40
2018-07-17T07:41:49.903Z,22.70
2018-07-17T07:44:19.319Z,22.70
2018-07-17T07:46:48.383Z,22.80
2018-07-17T07:49:17.543Z,22.90
2018-07-17T07:51:46.692Z,23.00
2018-07-17T07:54:15.803Z,23.10
2018-07-17T07:56:44.867Z,23.20
2018-07-17T07:59:14.018Z,23.20
2018-07-17T08:01:43.087Z,23.20
2018-07-17T08:04:12.231Z,23.30
2018-07-17T08:06:41.338Z,23.50
2018-07-17T08:09:10.387Z,23.50
2018-07-17T08:11:39.531Z,23.60
2018-07-17T08:14:08.592Z,23.60
2018-07-17T08:16:37.706Z,23.70
2018-07-17T08:19:06.826Z,23.50
2018-07-17T08:21:36.234Z,23.60
2018-07-17T08:24:05.294Z,23.60
2018-07-17T08:29:03.156Z,23.30
2018-07-17T08:31:32.278Z,23.30
2018-07-17T08:34:01.374Z,23.30
2018-07-17T08:36:30.498Z,23.40
2018-07-17T08:38:59.578Z,23.70
2018-07-17T08:41:28.700Z,23.80
2018-07-17T08:43:57.790Z,23.70
2018-07-17T08:46:26.911Z,23.90
2018-07-17T08:51:25.358Z,24.70
2018-07-17T08:53:54.459Z,24.90
2018-07-17T08:56:23.567Z,24.90
2018-07-17T08:58:52.695Z,25.00
2018-07-17T09:01:21.892Z,25.10
2018-07-17T09:03:50.968Z,25.10
2018-07-17T09:06:20.158Z,25.40
2018-07-17T09:08:49.966Z,25.60
2018-07-17T09:11:19.142Z,25.80
2018-07-17T09:13:48.186Z,25.90
2018-07-17T09:16:17.606Z,26.00
2018-07-17T09:18:46.780Z,26.10
2018-07-17T09:21:15.924Z,26.10
2018-07-17T09:23:45.031Z,26.00
2018-07-17T09:26:15.038Z,26.10
2018-07-17T09:28:44.730Z,26.10
2018-07-17T09:31:13.858Z,26.20
2018-07-17T09:33:43.001Z,26.20
2018-07-17T09:36:12.062Z,26.00
2018-07-17T09:38:41.146Z,26.00
2018-07-17T09:41:10.442Z,26.10
2018-07-17T09:43:39.554Z,26.20
2018-07-17T09:46:08.658Z,26.60
2018-07-17T09:48:37.738Z,26.90
2018-07-17T09:51:07.463Z,27.00
2018-07-17T09:53:36.539Z,26.90
2018-07-17T09:56:05.741Z,26.90
2018-07-17T09:58:34.846Z,26.90
2018-07-17T10:01:09.403Z,27.20
2018-07-17T10:03:38.571Z,27.40
2018-07-17T10:06:07.582Z,27.50
2018-07-17T10:08:36.669Z,27.70
2018-07-17T10:11:05.772Z,27.90
2018-07-17T10:13:34.906Z,27.90
2018-07-17T10:16:04.010Z,28.00
2018-07-17T10:18:33.181Z,27.80
2018-07-17T10:21:02.312Z,27.80
2018-07-17T10:23:31.430Z,27.60
2018-07-17T10:26:00.519Z,27.20
2018-07-17T10:28:29.635Z,27.20
2018-07-17T10:30:58.780Z,27.30
2018-07-17T10:33:27.925Z,27.60
2018-07-17T10:35:57.015Z,27.70
2018-07-17T10:38:26.223Z,28.20
2018-07-17T10:40:55.315Z,28.00
2018-07-17T10:43:24.410Z,27.90
2018-07-17T10:45:53.498Z,28.00
2018-07-17T10:48:22.718Z,28.20
2018-07-17T10:50:51.802Z,28.20
2018-07-17T10:53:20.936Z,28.20
2018-07-17T10:55:50.026Z,28.20
2018-07-17T10:58:19.151Z,28.00
2018-07-17T11:00:48.262Z,28.00
2018-07-17T11:03:17.370Z,28.30
2018-07-17T11:05:46.445Z,28.60
2018-07-17T11:08:15.579Z,28.70
2018-07-17T11:10:44.658Z,28.90
2018-07-17T11:13:13.734Z,29.10
2018-07-17T11:15:42.786Z,29.00
2018-07-17T11:18:11.874Z,29.40
2018-07-17T11:20:40.981Z,29.40
2018-07-17T11:23:10.059Z,29.40
2018-07-17T11:25:39.167Z,29.60
2018-07-17T11:28:08.270Z,29.70
2018-07-17T11:30:37.363Z,29.40
2018-07-17T11:33:06.450Z,29.30
2018-07-17T11:35:35.566Z,29.60
2018-07-17T11:38:04.698Z,29.70
2018-07-17T11:40:33.838Z,29.70
2018-07-17T11:43:02.945Z,29.70
2018-07-17T11:45:32.038Z,29.80
2018-07-17T11:48:01.151Z,29.80
2018-07-17T11:50:30.293Z,29.60
2018-07-17T11:52:59.386Z,29.70
2018-07-17T11:55:28.494Z,29.70
2018-07-17T11:57:57.620Z,29.50
2018-07-17T12:00:26.814Z,29.90
2018-07-17T12:02:56.121Z,30.10
2018-07-17T12:05:25.226Z,30.10
2018-07-17T12:07:54.386Z,30.10
2018-07-17T12:10:23.542Z,29.60
2018-07-17T12:12:52.948Z,28.60
2018-07-17T12:15:22.039Z,28.00
2018-07-17T12:17:51.126Z,27.70
2018-07-17T12:20:20.399Z,27.30
2018-07-17T12:22:49.386Z,27.00
2018-07-17T12:25:18.576Z,26.80
2018-07-17T12:27:47.672Z,26.50
2018-07-17T12:30:16.932Z,26.10
2018-07-17T12:32:46.011Z,26.00
2018-07-17T12:35:15.878Z,25.90
2018-07-17T12:37:44.966Z,25.80
2018-07-17T12:40:14.950Z,25.60
2018-07-17T12:42:44.068Z,25.40
2018-07-17T12:45:13.399Z,25.40
2018-07-17T12:47:42.450Z,25.40
2018-07-17T12:52:40.258Z,25.50
2018-07-17T12:55:09.361Z,25.50
2018-07-17T12:57:38.479Z,25.40
2018-07-17T13:00:07.676Z,25.50
2018-07-17T13:02:36.811Z,25.50
2018-07-17T13:05:06.299Z,25.40
2018-07-17T13:07:35.372Z,25.40
2018-07-17T13:10:04.950Z,25.60
2018-07-17T13:12:34.171Z,25.70
2018-07-17T13:15:03.754Z,25.80
2018-07-17T13:17:32.936Z,26.10
2018-07-17T13:20:01.964Z,26.20
2018-07-17T13:22:31.064Z,26.30
2018-07-17T13:25:00.140Z,26.80
2018-07-17T13:27:29.199Z,27.00
2018-07-17T13:29:58.278Z,27.00
2018-07-17T13:32:27.406Z,27.10
2018-07-17T13:34:56.498Z,27.30
2018-07-17T13:37:25.578Z,27.60
2018-07-17T13:39:54.744Z,27.60
2018-07-17T13:42:23.872Z,27.70
2018-07-17T13:44:52.998Z,27.80
2018-07-17T13:47:22.079Z,28.00
2018-07-17T13:49:51.230Z,27.90
2018-07-17T13:52:20.296Z,27.80
2018-07-17T13:54:49.378Z,27.80
2018-07-17T13:57:18.519Z,27.60
2018-07-17T14:02:16.297Z,27.10
2018-07-17T14:04:45.362Z,27.10
2018-07-17T14:07:14.440Z,27.00
2018-07-17T14:09:43.522Z,26.80
2018-07-17T14:12:12.629Z,26.50
2018-07-17T14:14:41.711Z,26.00
2018-07-17T14:17:10.910Z,26.10
2018-07-17T14:19:39.986Z,26.40
2018-07-17T14:22:09.074Z,26.50
2018-07-17T14:24:38.272Z,26.30
2018-07-17T14:27:07.419Z,26.30
2018-07-17T14:29:36.710Z,26.30
2018-07-17T14:32:05.857Z,26.20
2018-07-17T14:34:35.051Z,26.20
2018-07-17T14:37:04.245Z,26.00
2018-07-17T14:39:33.353Z,26.10
2018-07-17T14:42:02.462Z,26.00
2018-07-17T14:44:31.531Z,25.90
2018-07-17T14:47:00.649Z,25.70
2018-07-17T14:49:29.732Z,25.80
2018-07-17T14:51:58.818Z,25.70
2018-07-17T14:54:27.911Z,25.70
2018-07-17T14:56:57.070Z,25.60
2018-07-17T14:59:26.482Z,25.50
2018-07-17T15:01:55.591Z,25.40
2018-07-17T15:04:24.699Z,25.30
2018-07-17T15:06:53.770Z,25.20
2018-07-17T15:09:22.886Z,25.00
2018-07-17T15:11:52.086Z,24.80
2018-07-17T15:14:21.174Z,24.80
2018-07-17T15:16:50.280Z,24.60
2018-07-17T15:19:19.480Z,24.40
2018-07-17T15:21:48.609Z,24.40
2018-07-17T15:24:17.657Z,24.20
2018-07-17T15:26:46.797Z,24.00
2018-07-17T15:29:15.876Z,23.80
2018-07-17T15:31:46.092Z,23.60
2018-07-17T15:34:15.276Z,23.50
2018-07-17T15:36:44.338Z,23.40
2018-07-17T15:39:13.446Z,23.40
2018-07-17T15:41:42.528Z,23.30
2018-07-17T15:44:11.626Z,23.30
2018-07-17T15:46:40.707Z,23.20
2018-07-17T15:49:09.786Z,23.20
2018-07-17T15:51:38.894Z,23.10
2018-07-17T15:54:08.134Z,22.90
2018-07-17T15:56:37.220Z,22.70
2018-07-17T15:59:06.520Z,22.60
2018-07-17T16:01:35.578Z,22.50
2018-07-17T16:04:06.458Z,22.50
2018-07-17T16:06:36.774Z,22.30
2018-07-17T16:09:08.974Z,22.30
2018-07-17T16:11:39.164Z,22.30
2018-07-17T16:14:09.142Z,22.20
2018-07-17T16:16:38.699Z,22.10
2018-07-17T16:19:08.474Z,22.10
2018-07-17T16:21:38.327Z,22.00
2018-07-17T16:24:08.195Z,22.00
2018-07-17T16:26:38.572Z,22.20
2018-07-17T16:29:08.102Z,22.30
2018-07-17T16:31:37.967Z,22.60
2018-07-17T16:34:07.814Z,22.90
2018-07-17T16:36:37.092Z,23.10
2018-07-17T16:39:07.111Z,23.30
2018-07-17T16:41:36.203Z,23.50
2018-07-17T16:44:05.322Z,23.60
2018-07-17T16:46:34.410Z,23.90
2018-07-17T16:51:32.246Z,24.00
2018-07-17T16:54:01.377Z,23.90
2018-07-17T16:56:30.450Z,23.90
2018-07-17T16:58:59.562Z,23.90
2018-07-17T17:01:28.671Z,24.00
2018-07-17T17:03:57.770Z,23.90
2018-07-17T17:06:26.950Z,24.00
2018-07-17T17:08:56.118Z,24.10
2018-07-17T17:11:25.134Z,24.00
2018-07-17T17:13:54.238Z,24.00
2018-07-17T17:16:23.325Z,23.90
2018-07-17T17:18:52.530Z,23.90
2018-07-17T17:21:21.620Z,23.90
2018-07-17T17:23:50.732Z,23.90
2018-07-17T17:26:19.817Z,23.90
2018-07-17T17:28:48.946Z,23.90
2018-07-17T17:31:18.078Z,23.90
2018-07-17T17:33:47.198Z,23.80
2018-07-17T17:36:16.339Z,23.80
2018-07-17T17:38:45.437Z,23.80
2018-07-17T17:41:14.627Z,23.80
2018-07-17T17:43:43.856Z,23.80
2018-07-17T17:46:12.987Z,23.70
2018-07-17T17:48:42.094Z,23.60
2018-07-17T17:51:11.247Z,23.60
2018-07-17T17:53:40.338Z,23.60
2018-07-17T17:56:09.570Z,23.50
2018-07-17T17:58:38.662Z,23.40
2018-07-17T18:01:07.821Z,23.40
2018-07-17T18:03:36.883Z,23.40
2018-07-17T18:06:05.971Z,23.40
2018-07-17T18:08:35.067Z,23.20
2018-07-17T18:11:04.174Z,23.10
2018-07-17T18:13:33.242Z,22.90
2018-07-17T18:16:02.347Z,22.80
2018-07-17T18:18:31.543Z,22.80
2018-07-17T18:21:00.626Z,22.70
2018-07-17T18:23:29.728Z,22.70
2018-07-17T18:25:58.854Z,22.50
2018-07-17T18:28:27.941Z,22.40
2018-07-17T18:30:57.098Z,22.30
2018-07-17T18:33:26.182Z,22.20
2018-07-17T18:35:55.262Z,22.10
2018-07-17T18:38:24.422Z,22.00
2018-07-17T18:40:53.630Z,21.90
2018-07-17T18:43:22.683Z,21.80
2018-07-17T18:45:51.799Z,21.70
2018-07-17T18:48:20.945Z,21.60
2018-07-17T18:50:50.023Z,21.40
2018-07-17T18:53:19.117Z,21.40
2018-07-17T18:55:48.207Z,21.40
2018-07-17T18:58:17.375Z,21.30
2018-07-17T19:00:46.439Z,21.30
2018-07-17T19:03:15.591Z,21.40
2018-07-17T19:05:44.659Z,21.30
2018-07-17T19:08:13.807Z,21.30
2018-07-17T19:10:42.883Z,21.40
2018-07-17T19:13:12.039Z,21.30
2018-07-17T19:15:41.104Z,21.20
2018-07-17T19:18:10.229Z,21.10
2018-07-17T19:23:08.940Z,21.00
2018-07-17T19:25:38.010Z,21.00
2018-07-17T19:28:07.192Z,20.90
2018-07-17T19:30:36.267Z,20.90
2018-07-17T19:33:05.565Z,20.80
2018-07-17T19:35:34.721Z,20.70
2018-07-17T19:38:03.788Z,20.80
2018-07-17T19:40:32.883Z,20.80
2018-07-17T19:43:02.362Z,20.80
2018-07-17T19:45:31.441Z,20.70
2018-07-17T19:48:00.628Z,20.70
2018-07-17T19:50:29.682Z,20.70
2018-07-17T19:52:58.800Z,20.60
2018-07-17T19:55:28.023Z,20.60
2018-07-17T19:57:57.134Z,20.60
2018-07-17T20:00:26.328Z,20.60
2018-07-17T20:02:55.455Z,20.50
2018-07-17T20:05:24.532Z,20.30
2018-07-17T20:07:53.657Z,20.40
2018-07-17T20:10:22.753Z,20.50
2018-07-17T20:12:51.879Z,20.50
2018-07-17T20:15:21.000Z,20.60
2018-07-17T20:17:50.127Z,20.50
2018-07-17T20:20:19.214Z,20.50
2018-07-17T20:22:48.306Z,20.50
2018-07-17T20:25:17.504Z,20.60
2018-07-17T20:27:46.607Z,20.50
2018-07-17T20:30:15.781Z,20.40
2018-07-17T20:32:44.924Z,20.50
2018-07-17T20:35:14.035Z,20.50
2018-07-17T20:37:43.117Z,20.50
2018-07-17T20:40:12.227Z,20.50
2018-07-17T20:42:41.338Z,20.60
2018-07-17T20:45:10.468Z,20.60
2018-07-17T20:47:39.571Z,20.70
2018-07-17T20:50:08.703Z,20.60
2018-07-17T20:52:37.788Z,20.50
2018-07-17T20:55:06.891Z,20.50
2018-07-17T20:57:36.069Z,20.50
2018-07-17T21:00:10.851Z,20.40
2018-07-17T21:02:40.311Z,20.20
2018-07-17T21:05:09.572Z,20.30
2018-07-17T21:07:38.806Z,20.10
2018-07-17T21:10:07.942Z,20.10
2018-07-17T21:12:37.072Z,19.90
2018-07-17T21:15:06.210Z,20.00
2018-07-17T21:17:35.294Z,20.00
2018-07-17T21:20:04.563Z,20.00
2018-07-17T21:22:34.403Z,20.00
2018-07-17T21:25:03.541Z,19.80
2018-07-17T21:27:32.650Z,19.70
2018-07-17T21:30:01.759Z,19.50
2018-07-17T21:32:30.863Z,19.60
2018-07-17T21:34:59.977Z,19.50
2018-07-17T21:37:29.266Z,19.40
2018-07-17T21:39:58.818Z,19.20
2018-07-17T21:42:27.929Z,19.10
2018-07-17T21:44:57.066Z,19.00
2018-07-17T21:47:26.267Z,18.90
2018-07-17T21:49:55.326Z,18.80
2018-07-17T21:52:24.438Z,18.80
2018-07-17T21:54:53.543Z,18.80
2018-07-17T21:57:22.648Z,18.70
2018-07-17T21:59:51.742Z,18.70
2018-07-17T22:02:20.839Z,18.70
2018-07-17T22:04:49.942Z,18.60
2018-07-17T22:07:19.145Z,18.60
2018-07-17T22:09:48.286Z,18.60
2018-07-17T22:12:17.362Z,18.40
2018-07-17T22:14:47.133Z,18.40
2018-07-17T22:19:44.943Z,18.20
2018-07-17T22:22:14.065Z,18.20
2018-07-17T22:24:43.159Z,18.20
2018-07-17T22:27:12.243Z,18.20
2018-07-17T22:29:41.338Z,18.20
2018-07-17T22:32:10.501Z,17.80
2018-07-17T22:34:39.555Z,17.70
2018-07-17T22:37:08.725Z,17.80
2018-07-17T22:39:37.790Z,17.80
2018-07-17T22:42:07.235Z,17.90
2018-07-17T22:44:36.362Z,17.80
2018-07-17T22:47:05.522Z,17.80
2018-07-17T22:49:34.610Z,17.70
2018-07-17T22:52:03.706Z,17.70
2018-07-17T22:54:32.776Z,17.60
2018-07-17T22:57:01.872Z,17.70
2018-07-17T22:59:30.963Z,17.90
2018-07-17T23:02:00.138Z,18.00
2018-07-17T23:04:29.186Z,17.90
2018-07-17T23:06:58.274Z,17.90
2018-07-17T23:09:27.362Z,17.80
2018-07-17T23:11:57.298Z,17.70
2018-07-17T23:14:26.378Z,17.40
2018-07-17T23:16:55.504Z,17.20
2018-07-17T23:19:24.575Z,17.40
2018-07-17T23:21:53.674Z,17.50
2018-07-17T23:24:22.740Z,17.60
2018-07-17T23:26:51.911Z,17.40
2018-07-17T23:29:21.010Z,17.00
2018-07-17T23:31:50.131Z,16.90
2018-07-17T23:34:19.233Z,17.10
2018-07-17T23:36:48.454Z,17.10
2018-07-17T23:39:17.713Z,17.20
2018-07-17T23:41:46.810Z,17.30
2018-07-17T23:44:15.933Z,17.30
2018-07-17T23:46:45.031Z,17.30
2018-07-17T23:49:18.314Z,17.30
2018-07-17T23:51:47.446Z,17.20
2018-07-17T23:54:16.549Z,16.90
2018-07-17T23:56:45.635Z,17.00
2018-07-17T23:59:14.758Z,16.90
